Time;durP1;ratioP1;P1;durP2;ratioP2;P2;SDS_P1;SDS_P2;PMS_P1;PMS_P2;Temp;Humidity;BMP_temperature;BMP_pressure;BME280_temperature;BME280_humidity;BME280_pressure;Samples;Min_cycle;Max_cycle;Signal;HPM_P1;HPM_P2
2021/01/20 00:02:06;;;;;;;5.07;2.47;;;4.40;99.90;;;;;;5031402;28;20128;-67
2021/01/20 00:04:32;;;;;;;3.83;2.45;;;4.40;99.90;;;;;;5048547;28;20064;-65
2021/01/20 00:06:58;;;;;;;5.65;2.60;;;4.50;99.90;;;;;;5048280;28;20065;-67
2021/01/20 00:09:24;;;;;;;8.70;2.78;;;4.50;99.90;;;;;;5032609;28;20029;-67
2021/01/20 00:11:49;;;;;;;5.85;2.50;;;4.50;99.90;;;;;;5031767;28;20022;-68
2021/01/20 00:14:16;;;;;;;4.30;2.67;;;4.50;99.90;;;;;;5032260;28;20159;-67
2021/01/20 00:16:42;;;;;;;4.28;2.38;;;4.50;99.90;;;;;;5033112;28;20108;-67
2021/01/20 00:19:08;;;;;;;3.35;2.53;;;4.50;99.90;;;;;;5032498;28;20022;-68
2021/01/20 00:21:35;;;;;;;8.00;3.10;;;4.40;99.90;;;;;;5033131;28;20052;-67
2021/01/20 00:24:01;;;;;;;4.55;2.50;;;4.40;99.90;;;;;;5032616;28;20391;-68
2021/01/20 00:26:27;;;;;;;5.18;2.85;;;4.40;99.90;;;;;;5032686;28;20475;-67
2021/01/20 00:28:53;;;;;;;5.57;2.50;;;4.40;99.90;;;;;;5031400;28;20026;-68
2021/01/20 00:31:19;;;;;;;5.60;3.13;;;4.30;99.90;;;;;;5032418;28;20038;-67
2021/01/20 00:33:44;;;;;;;3.67;2.25;;;4.30;99.90;;;;;;5032443;28;20017;-67
2021/01/20 00:36:10;;;;;;;5.72;2.75;;;4.20;99.90;;;;;;5030707;28;20068;-69
2021/01/20 00:38:36;;;;;;;4.28;2.85;;;4.50;99.90;;;;;;5032525;28;20053;-67
2021/01/20 00:41:02;;;;;;;4.88;2.55;;;4.20;99.90;;;;;;5032758;28;20033;-67
2021/01/20 00:43:28;;;;;;;4.32;2.30;;;4.20;99.90;;;;;;5032181;28;20073;-67
2021/01/20 00:45:53;;;;;;;6.32;2.75;;;4.30;99.90;;;;;;5031086;28;20503;-67
2021/01/20 00:48:19;;;;;;;5.63;3.05;;;4.20;99.90;;;;;;5031617;28;20025;-67
2021/01/20 00:50:45;;;;;;;5.25;3.30;;;4.20;99.90;;;;;;5031038;28;20087;-67
2021/01/20 00:53:10;;;;;;;7.88;2.85;;;4.20;99.90;;;;;;5030451;28;20390;-67
2021/01/20 00:55:36;;;;;;;4.75;2.60;;;4.20;99.90;;;;;;5032145;28;20063;-67
2021/01/20 00:58:02;;;;;;;4.57;3.00;;;4.20;99.90;;;;;;5032409;28;20052;-67
2021/01/20 01:00:27;;;;;;;4.80;2.95;;;4.10;99.90;;;;;;5031880;28;20047;-67
2021/01/20 01:02:53;;;;;;;4.15;2.30;;;4.00;99.90;;;;;;5029691;28;20148;-68
2021/01/20 01:05:19;;;;;;;3.83;2.78;;;4.10;99.90;;;;;;5031209;28;20116;-67
2021/01/20 01:07:44;;;;;;;8.18;2.60;;;4.00;99.90;;;;;;5030870;28;20030;-67
2021/01/20 01:10:11;;;;;;;3.75;2.63;;;4.00;99.90;;;;;;5030132;28;20157;-67
2021/01/20 01:12:37;;;;;;;4.13;2.55;;;4.00;99.90;;;;;;5031563;28;20479;-67
2021/01/20 01:15:05;;;;;;;4.20;3.10;;;4.00;99.90;;;;;;5031938;28;20065;-67
2021/01/20 01:17:31;;;;;;;7.20;2.35;;;4.00;99.90;;;;;;5031958;28;20022;-67
2021/01/20 01:19:57;;;;;;;7.72;3.63;;;4.00;99.90;;;;;;5031764;28;20313;-67
2021/01/20 01:22:22;;;;;;;4.45;2.75;;;4.00;99.90;;;;;;5029648;28;20045;-67
2021/01/20 01:24:48;;;;;;;4.28;2.67;;;4.00;99.90;;;;;;5031581;28;20030;-66
2021/01/20 01:27:14;;;;;;;4.30;2.63;;;4.00;99.90;;;;;;5029734;28;20029;-67
2021/01/20 01:29:39;;;;;;;3.95;2.40;;;3.90;99.90;;;;;;5030241;28;20121;-66
2021/01/20 01:32:06;;;;;;;7.63;3.70;;;3.90;99.90;;;;;;5030164;28;20033;-68
2021/01/20 01:34:33;;;;;;;4.60;2.90;;;3.90;99.90;;;;;;5032138;28;20463;-66
2021/01/20 01:36:58;;;;;;;4.45;2.85;;;3.90;99.90;;;;;;5029970;28;20467;-64
2021/01/20 01:39:24;;;;;;;4.35;2.58;;;3.90;99.90;;;;;;5029446;28;20065;-66
2021/01/20 01:41:50;;;;;;;5.95;3.67;;;3.90;99.90;;;;;;5031680;28;20064;-67
2021/01/20 01:44:18;;;;;;;5.55;2.72;;;3.90;99.90;;;;;;5030554;28;20103;-67
2021/01/20 01:46:44;;;;;;;4.55;2.47;;;4.00;99.90;;;;;;5029915;28;20057;-67
2021/01/20 01:49:10;;;;;;;6.40;3.15;;;4.00;99.90;;;;;;5030427;28;20061;-67
2021/01/20 01:51:36;;;;;;;2.67;2.20;;;4.10;99.90;;;;;;5030939;28;20025;-66
2021/01/20 01:54:02;;;;;;;4.32;2.17;;;4.10;99.90;;;;;;5029844;28;20124;-67
2021/01/20 01:56:28;;;;;;;5.93;2.63;;;4.10;99.90;;;;;;5030692;28;20033;-68
2021/01/20 01:58:54;;;;;;;6.97;3.53;;;4.10;99.90;;;;;;5029876;28;20036;-68
2021/01/20 02:01:20;;;;;;;8.50;3.65;;;4.10;99.90;;;;;;5030151;28;20029;-67
2021/01/20 02:03:52;;;;;;;4.72;2.70;;;4.00;99.90;;;;;;5030943;28;20087;-67
2021/01/20 02:06:18;;;;;;;8.95;3.38;;;4.10;99.90;;;;;;5029026;28;20110;-67
2021/01/20 02:08:46;;;;;;;4.90;2.28;;;4.20;99.90;;;;;;5029550;28;20032;-66
2021/01/20 02:11:44;;;;;;;7.13;3.22;;;4.20;99.90;;;;;;5028555;28;20029;-68
2021/01/20 02:14:15;;;;;;;4.50;2.47;;;4.20;99.90;;;;;;5015917;28;20075;-67
2021/01/20 02:16:51;;;;;;;10.70;3.92;;;4.20;99.90;;;;;;5029563;28;20025;-67
2021/01/20 02:19:20;;;;;;;4.78;2.42;;;4.30;99.90;;;;;;5030107;28;20045;-68
2021/01/20 02:22:15;;;;;;;4.13;2.72;;;4.30;99.90;;;;;;5031095;28;20030;-68
2021/01/20 02:25:31;;;;;;;6.32;3.05;;;4.30;99.90;;;;;;5029450;28;20049;-68
2021/01/20 02:28:08;;;;;;;4.68;2.63;;;4.30;99.90;;;;;;5013082;28;20455;-68
2021/01/20 02:30:37;;;;;;;5.28;3.08;;;4.20;99.90;;;;;;5029408;28;20147;-68
2021/01/20 02:33:04;;;;;;;4.55;2.92;;;4.20;99.90;;;;;;5030727;28;20025;-67
2021/01/20 02:35:31;;;;;;;5.93;2.67;;;4.30;99.90;;;;;;5028746;28;20372;-67
2021/01/20 02:38:01;;;;;;;6.45;2.80;;;4.40;99.90;;;;;;5030532;28;20144;-67
2021/01/20 02:40:27;;;;;;;4.00;2.05;;;4.40;99.90;;;;;;5028720;28;20041;-68
2021/01/20 02:42:53;;;;;;;5.40;2.67;;;4.40;99.90;;;;;;5030524;28;20328;-67
2021/01/20 02:45:19;;;;;;;3.55;2.58;;;4.50;99.90;;;;;;5028553;28;20033;-68
2021/01/20 02:47:47;;;;;;;2.45;1.90;;;4.40;99.90;;;;;;5028901;28;20029;-67
2021/01/20 02:50:14;;;;;;;8.68;2.40;;;4.40;99.90;;;;;;5029859;28;20025;-68
2021/01/20 02:52:46;;;;;;;6.38;2.97;;;4.50;99.90;;;;;;5030525;28;20030;-67
2021/01/20 02:55:14;;;;;;;7.22;3.05;;;4.50;99.90;;;;;;5029949;28;20034;-68
2021/01/20 02:57:41;;;;;;;5.45;2.88;;;4.50;99.90;;;;;;5030273;28;20450;-67
2021/01/20 03:00:08;;;;;;;3.17;2.28;;;4.60;99.90;;;;;;5029247;28;20475;-67
2021/01/20 03:02:37;;;;;;;3.03;2.47;;;4.50;99.90;;;;;;5029576;28;20100;-67
2021/01/20 03:05:03;;;;;;;5.57;2.72;;;4.50;99.90;;;;;;5028897;28;20411;-67
2021/01/20 03:07:32;;;;;;;3.90;2.60;;;4.60;99.90;;;;;;5029455;28;20033;-67
2021/01/20 03:09:58;;;;;;;5.95;2.70;;;4.50;99.90;;;;;;5028801;28;20025;-67
2021/01/20 03:12:28;;;;;;;6.57;3.08;;;4.40;99.90;;;;;;5030007;28;20052;-67
2021/01/20 03:14:56;;;;;;;4.47;2.28;;;4.40;99.90;;;;;;5030289;28;20034;-67
2021/01/20 03:17:22;;;;;;;2.78;2.35;;;4.30;99.90;;;;;;5028436;28;20053;-67
2021/01/20 03:19:48;;;;;;;6.60;2.88;;;4.30;99.90;;;;;;5030253;28;20486;-67
2021/01/20 03:22:13;;;;;;;3.95;2.40;;;4.30;99.90;;;;;;5028102;28;20103;-67
2021/01/20 03:25:26;;;;;;;4.03;2.20;;;4.20;99.90;;;;;;5029782;28;20177;-68
2021/01/20 03:27:52;;;;;;;8.50;2.60;;;4.30;99.90;;;;;;5033857;28;20025;-67
2021/01/20 03:30:18;;;;;;;4.60;2.42;;;4.30;99.90;;;;;;5031908;28;20029;-68
2021/01/20 03:32:44;;;;;;;2.83;2.10;;;4.30;99.90;;;;;;5032316;28;20026;-68
2021/01/20 03:35:11;;;;;;;4.88;2.40;;;4.30;99.90;;;;;;5033805;28;20088;-67
2021/01/20 03:37:36;;;;;;;5.32;2.70;;;4.30;99.90;;;;;;5033102;28;20411;-68
2021/01/20 03:40:04;;;;;;;3.10;1.98;;;4.20;99.90;;;;;;5033409;28;20034;-68
2021/01/20 03:42:30;;;;;;;4.80;2.42;;;4.20;99.90;;;;;;5031667;28;20076;-67
2021/01/20 03:44:55;;;;;;;3.67;2.67;;;4.40;99.90;;;;;;5033451;28;20178;-67
2021/01/20 03:47:21;;;;;;;3.08;2.20;;;4.40;99.90;;;;;;5031553;28;20033;-67
2021/01/20 03:49:47;;;;;;;2.85;2.13;;;4.40;99.90;;;;;;5033603;28;20021;-67
2021/01/20 03:52:13;;;;;;;4.07;1.77;;;4.30;99.90;;;;;;5033545;28;20379;-68
2021/01/20 03:54:38;;;;;;;3.63;2.10;;;4.30;99.90;;;;;;5033318;28;20049;-67
2021/01/20 03:57:05;;;;;;;3.00;1.92;;;4.40;99.90;;;;;;5033681;28;20386;-68
2021/01/20 03:59:30;;;;;;;3.50;1.90;;;4.40;99.90;;;;;;5032422;28;20448;-68
2021/01/20 04:01:58;;;;;;;3.15;1.88;;;4.40;99.90;;;;;;5033727;28;20100;-68
2021/01/20 04:04:23;;;;;;;3.50;1.88;;;4.50;99.90;;;;;;5031304;28;20481;-68
2021/01/20 04:06:49;;;;;;;2.75;1.90;;;4.50;99.90;;;;;;5033110;28;20041;-68
2021/01/20 04:09:15;;;;;;;4.15;2.83;;;4.50;99.90;;;;;;5032455;28;20029;-69
2021/01/20 04:11:41;;;;;;;4.78;2.15;;;4.40;99.90;;;;;;5032937;28;20030;-67
2021/01/20 04:14:06;;;;;;;4.28;1.95;;;4.40;99.90;;;;;;5033290;28;20423;-67
2021/01/20 04:16:32;;;;;;;2.65;1.90;;;4.50;99.90;;;;;;5031088;28;20025;-68
2021/01/20 04:18:58;;;;;;;3.38;2.00;;;4.40;99.90;;;;;;5033092;28;20474;-67
2021/01/20 04:21:23;;;;;;;4.18;2.20;;;4.50;99.90;;;;;;5030678;28;20463;-68
2021/01/20 04:23:49;;;;;;;4.93;2.15;;;4.40;99.90;;;;;;5032709;28;20021;-68
2021/01/20 04:26:15;;;;;;;2.97;1.88;;;4.40;99.90;;;;;;5031591;28;20030;-67
2021/01/20 04:28:41;;;;;;;4.65;2.78;;;4.40;99.90;;;;;;5033123;28;20022;-68
2021/01/20 04:31:07;;;;;;;3.33;2.00;;;4.40;99.90;;;;;;5048095;28;20029;-68
2021/01/20 04:33:32;;;;;;;3.72;1.98;;;4.40;99.90;;;;;;5030709;28;20021;-68
2021/01/20 04:35:58;;;;;;;5.70;2.40;;;4.30;99.90;;;;;;5032460;28;20048;-67
2021/01/20 04:38:24;;;;;;;4.63;2.70;;;4.30;99.90;;;;;;5028948;28;20045;-68
2021/01/20 04:41:18;;;;;;;4.72;2.40;;;4.30;99.90;;;;;;5031227;28;20032;-68
2021/01/20 04:43:44;;;;;;;5.90;2.05;;;4.30;99.90;;;;;;5032514;28;20434;-68
2021/01/20 04:46:12;;;;;;;4.30;2.10;;;4.30;99.90;;;;;;5032653;28;20037;-67
2021/01/20 04:48:38;;;;;;;5.40;2.22;;;4.20;99.90;;;;;;5030511;28;20463;-67
2021/01/20 04:51:07;;;;;;;3.78;2.10;;;4.20;99.90;;;;;;5030968;28;20026;-67
2021/01/20 04:53:33;;;;;;;5.15;2.20;;;4.20;99.90;;;;;;5030157;28;20489;-67
2021/01/20 04:56:09;;;;;;;4.40;1.65;;;4.20;99.90;;;;;;5030558;28;20049;-67
2021/01/20 04:58:35;;;;;;;2.60;1.92;;;4.10;99.90;;;;;;5030119;28;20030;-67
2021/01/20 05:01:01;;;;;;;4.22;2.28;;;4.20;99.90;;;;;;5032017;28;20029;-67
2021/01/20 05:03:27;;;;;;;3.00;2.28;;;4.20;99.90;;;;;;5029997;28;20022;-67
2021/01/20 05:05:55;;;;;;;2.55;1.50;;;4.10;99.90;;;;;;5032085;28;20053;-67
2021/01/20 05:08:21;;;;;;;3.75;2.10;;;4.10;99.90;;;;;;5029899;28;20029;-69
2021/01/20 05:10:48;;;;;;;6.35;2.40;;;4.20;99.90;;;;;;5030841;28;20352;-67
2021/01/20 05:13:28;;;;;;;3.92;1.88;;;4.30;99.90;;;;;;5032038;28;20033;-68
2021/01/20 05:15:54;;;;;;;3.03;1.80;;;4.40;99.90;;;;;;5031986;28;20514;-68
2021/01/20 05:18:20;;;;;;;6.03;2.58;;;4.40;99.90;;;;;;5029712;28;20033;-69
2021/01/20 05:20:46;;;;;;;3.15;1.92;;;4.40;99.90;;;;;;5031673;28;20087;-68
2021/01/20 05:23:12;;;;;;;5.35;2.63;;;4.40;99.90;;;;;;5030241;28;20080;-68
2021/01/20 05:25:39;;;;;;;3.63;2.10;;;4.50;99.90;;;;;;5028760;28;20038;-65
2021/01/20 05:28:27;;;;;;;3.80;2.10;;;4.60;99.90;;;;;;5030021;28;20112;-66
2021/01/20 05:31:00;;;;;;;3.35;1.95;;;4.60;99.90;;;;;;5030134;28;20108;-67
2021/01/20 05:33:28;;;;;;;3.35;2.20;;;4.70;99.90;;;;;;5028785;28;20029;-69
2021/01/20 05:36:04;;;;;;;4.43;2.20;;;4.70;99.90;;;;;;5029952;28;20064;-68
2021/01/20 05:38:55;;;;;;;7.68;2.72;;;4.70;99.90;;;;;;5030679;28;20110;-60
2021/01/20 05:41:29;;;;;;;7.78;4.80;;;5.20;99.90;;;;;;5031030;28;20048;-69
2021/01/20 05:44:08;;;;;;;3.53;2.10;;;7.50;99.90;;;;;;5029479;28;20080;-67
2021/01/20 05:46:36;;;;;;;5.05;2.65;;;6.30;99.00;;;;;;5030302;28;20095;-67
2021/01/20 05:49:03;;;;;;;3.80;2.03;;;5.60;99.90;;;;;;5030348;28;20029;-67
2021/01/20 05:51:42;;;;;;;2.85;1.85;;;5.30;99.90;;;;;;5028819;28;20108;-66
2021/01/20 05:54:09;;;;;;;4.90;2.00;;;5.20;99.90;;;;;;5030794;28;20025;-66
2021/01/20 05:56:35;;;;;;;7.07;1.92;;;5.10;99.90;;;;;;5030083;28;20032;-66
2021/01/20 05:59:01;;;;;;;3.50;1.85;;;5.00;99.90;;;;;;5030297;28;20112;-66
2021/01/20 06:01:28;;;;;;;2.50;1.67;;;5.00;99.90;;;;;;5028604;28;20049;-68
2021/01/20 06:03:54;;;;;;;5.55;2.95;;;5.00;99.90;;;;;;5030609;28;20339;-66
2021/01/20 06:06:20;;;;;;;2.67;1.75;;;5.00;99.90;;;;;;5030590;28;20049;-64
2021/01/20 06:08:46;;;;;;;5.03;1.80;;;5.00;99.90;;;;;;5029597;28;20052;-67
2021/01/20 06:11:13;;;;;;;3.47;2.08;;;5.00;99.90;;;;;;5030534;28;20041;-66
2021/01/20 06:13:39;;;;;;;2.33;1.77;;;5.00;99.90;;;;;;5030184;28;20040;-65
2021/01/20 06:16:17;;;;;;;5.25;2.25;;;5.00;99.90;;;;;;5028912;28;20029;-64
2021/01/20 06:18:53;;;;;;;5.38;2.15;;;5.00;99.90;;;;;;5028527;28;20040;-77
2021/01/20 06:21:18;;;;;;;2.45;2.03;;;5.00;99.90;;;;;;5029326;28;20482;-64
2021/01/20 06:23:49;;;;;;;6.22;2.97;;;5.00;99.90;;;;;;5027956;28;20029;-64
2021/01/20 06:26:16;;;;;;;6.13;2.40;;;5.00;99.90;;;;;;5029497;28;20040;-64
2021/01/20 06:28:50;;;;;;;2.95;1.73;;;4.90;99.90;;;;;;5029063;28;20048;-65
2021/01/20 06:31:17;;;;;;;7.03;2.33;;;5.00;99.90;;;;;;5048801;28;20070;-64
2021/01/20 06:33:43;;;;;;;5.45;2.65;;;4.90;99.90;;;;;;5048534;28;20033;-67
2021/01/20 06:36:08;;;;;;;4.88;1.80;;;4.90;99.90;;;;;;5050088;28;20167;-65
2021/01/20 06:38:36;;;;;;;3.88;2.45;;;5.00;99.90;;;;;;5049418;28;20080;-65
2021/01/20 06:41:18;;;;;;;3.33;1.95;;;4.90;99.90;;;;;;5048874;28;20045;-65
2021/01/20 06:43:46;;;;;;;3.40;1.80;;;4.90;99.90;;;;;;5049163;28;20029;-64
2021/01/20 06:46:15;;;;;;;3.80;1.90;;;4.90;99.90;;;;;;5044628;28;20328;-64
2021/01/20 06:49:01;;;;;;;5.13;2.00;;;4.90;99.90;;;;;;5027794;28;20112;-65
2021/01/20 06:51:28;;;;;;;3.55;2.00;;;4.90;99.90;;;;;;5026668;28;20026;-65
2021/01/20 06:54:06;;;;;;;7.40;2.10;;;4.90;99.90;;;;;;5027371;28;20043;-65
2021/01/20 06:56:37;;;;;;;5.38;1.90;;;4.90;99.90;;;;;;5028910;28;20022;-66
2021/01/20 06:59:30;;;;;;;4.57;2.03;;;4.90;99.90;;;;;;5014424;28;20053;-65
2021/01/20 07:02:02;;;;;;;3.83;1.83;;;4.90;99.90;;;;;;5031857;28;20030;-65
2021/01/20 07:04:36;;;;;;;4.07;2.65;;;5.00;99.90;;;;;;5032621;28;20074;-66
2021/01/20 07:07:32;;;;;;;4.03;2.65;;;5.00;99.90;;;;;;5032093;28;20110;-66
2021/01/20 07:09:57;;;;;;;3.38;2.33;;;5.00;99.90;;;;;;5032431;28;20026;-65
2021/01/20 07:12:25;;;;;;;3.72;2.63;;;5.10;99.90;;;;;;5031375;28;20512;-66
2021/01/20 07:14:55;;;;;;;2.88;2.00;;;5.10;99.90;;;;;;5031509;28;20467;-66
2021/01/20 07:17:23;;;;;;;2.97;1.60;;;5.10;99.90;;;;;;5032512;28;20066;-67
2021/01/20 07:19:49;;;;;;;3.60;2.13;;;5.10;99.90;;;;;;5032475;28;20025;-66
2021/01/20 07:22:17;;;;;;;4.50;2.40;;;5.20;99.90;;;;;;5033363;28;20033;-67
2021/01/20 07:24:43;;;;;;;7.97;2.75;;;5.20;99.90;;;;;;5031998;28;20033;-66
2021/01/20 07:27:13;;;;;;;3.47;2.35;;;5.30;99.90;;;;;;5034270;28;20040;-66
2021/01/20 07:29:40;;;;;;;5.20;2.30;;;5.30;99.90;;;;;;5033153;28;20029;-66
2021/01/20 07:32:07;;;;;;;4.82;2.35;;;5.40;99.90;;;;;;5032350;28;20375;-66
2021/01/20 07:34:40;;;;;;;8.35;2.15;;;5.30;99.90;;;;;;5032836;28;20029;-66
2021/01/20 07:37:11;;;;;;;5.63;2.50;;;5.30;99.90;;;;;;5033870;28;20029;-66
2021/01/20 07:39:37;;;;;;;3.80;2.33;;;5.40;99.90;;;;;;5031499;28;20064;-66
2021/01/20 07:42:05;;;;;;;7.32;2.58;;;5.40;99.90;;;;;;5031561;28;20036;-65
2021/01/20 07:44:31;;;;;;;7.45;2.30;;;5.40;99.90;;;;;;5031455;28;20029;-66
2021/01/20 07:47:15;;;;;;;6.97;1.80;;;5.40;99.90;;;;;;5032103;28;20064;-65
2021/01/20 07:49:52;;;;;;;6.32;2.33;;;5.50;99.90;;;;;;5033241;28;20375;-66
2021/01/20 07:52:20;;;;;;;7.38;2.60;;;5.40;99.90;;;;;;5033401;28;20379;-66
2021/01/20 07:54:48;;;;;;;11.20;2.92;;;5.50;99.90;;;;;;5030788;28;20030;-67
2021/01/20 07:57:16;;;;;;;5.75;2.90;;;5.60;99.90;;;;;;5032990;28;20037;-66
2021/01/20 07:59:41;;;;;;;5.15;2.05;;;5.50;99.90;;;;;;5033003;28;20025;-66
2021/01/20 08:02:17;;;;;;;7.65;2.28;;;5.60;99.90;;;;;;5033666;28;20083;-66
2021/01/20 08:04:42;;;;;;;4.57;1.52;;;5.70;99.90;;;;;;5030932;28;20033;-66
2021/01/20 08:07:10;;;;;;;4.85;2.00;;;5.70;99.90;;;;;;5033135;28;20040;-66
2021/01/20 08:09:39;;;;;;;5.13;2.08;;;5.80;99.90;;;;;;5032572;28;20026;-66
2021/01/20 08:12:07;;;;;;;4.85;1.90;;;5.80;99.90;;;;;;5031056;28;20026;-66
2021/01/20 08:14:39;;;;;;;4.45;2.08;;;5.80;99.90;;;;;;5031231;28;20140;-67
2021/01/20 08:17:05;;;;;;;;;;;5.80;99.90;;;;;;5032706;28;20053;-66
2021/01/20 08:19:34;;;;;;;4.82;1.67;;;5.70;99.90;;;;;;5032540;28;19912;-68
2021/01/20 08:22:02;;;;;;;5.35;2.28;;;5.80;99.90;;;;;;5033263;28;20029;-67
2021/01/20 08:24:27;;;;;;;3.42;1.77;;;5.90;99.90;;;;;;5032867;28;20026;-66
2021/01/20 08:26:55;;;;;;;3.67;1.92;;;5.90;99.80;;;;;;5030872;28;20120;-67
2021/01/20 08:29:21;;;;;;;5.82;1.70;;;5.90;99.80;;;;;;5031623;28;20414;-67
2021/01/20 08:32:11;;;;;;;7.25;1.90;;;5.90;99.90;;;;;;5032143;28;20022;-66
2021/01/20 08:34:39;;;;;;;4.70;1.88;;;6.00;99.60;;;;;;5030629;28;20066;-66
2021/01/20 08:37:08;;;;;;;4.85;1.95;;;6.00;99.60;;;;;;5032312;28;20037;-66
2021/01/20 08:39:36;;;;;;;8.90;2.40;;;6.10;99.30;;;;;;5031963;28;20054;-67
2021/01/20 08:42:15;;;;;;;4.65;1.90;;;6.10;99.50;;;;;;5031152;28;20121;-66
2021/01/20 08:45:00;;;;;;;9.98;2.47;;;6.10;99.60;;;;;;5032255;28;20056;-67
2021/01/20 08:47:26;;;;;;;4.63;2.08;;;6.10;99.40;;;;;;5031151;28;20065;-66
2021/01/20 08:49:55;;;;;;;6.70;3.40;;;6.10;99.30;;;;;;5031575;28;20352;-66
2021/01/20 08:52:20;;;;;;;5.95;2.05;;;6.20;99.30;;;;;;5032221;28;20061;-67
2021/01/20 08:54:50;;;;;;;3.67;1.60;;;6.20;99.30;;;;;;5029084;28;20083;-65
2021/01/20 08:57:20;;;;;;;6.43;2.17;;;6.30;99.20;;;;;;5031093;28;20025;-69
2021/01/20 08:59:50;;;;;;;8.95;1.63;;;6.40;99.20;;;;;;5030613;28;20025;-66
2021/01/20 09:02:17;;;;;;;2.88;1.05;;;6.40;99.00;;;;;;5030225;28;20025;-66
2021/01/20 09:04:47;;;;;;;5.13;2.20;;;6.40;99.10;;;;;;5031163;28;20033;-67
2021/01/20 09:07:13;;;;;;;8.70;2.08;;;6.50;99.10;;;;;;5031219;28;20128;-66
2021/01/20 09:09:39;;;;;;;3.53;1.75;;;6.50;98.90;;;;;;5030091;28;20040;-67
2021/01/20 09:12:05;;;;;;;6.47;2.30;;;6.60;98.60;;;;;;5031867;28;20041;-66
2021/01/20 09:14:31;;;;;;;7.63;1.92;;;6.50;98.70;;;;;;5030689;28;20029;-67
2021/01/20 09:17:00;;;;;;;6.15;1.92;;;6.50;98.90;;;;;;5029891;28;20033;-67
2021/01/20 09:19:26;;;;;;;5.35;2.20;;;6.60;98.80;;;;;;5031544;28;20159;-67
2021/01/20 09:21:51;;;;;;;3.47;1.90;;;6.50;99.10;;;;;;5029799;28;20056;-67
2021/01/20 09:24:17;;;;;;;4.18;2.53;;;6.60;99.10;;;;;;5030400;28;20057;-68
2021/01/20 09:26:43;;;;;;;10.88;2.53;;;6.60;99.10;;;;;;5029619;28;20040;-68
2021/01/20 09:29:09;;;;;;;6.10;2.17;;;6.60;99.20;;;;;;5030618;28;20047;-67
2021/01/20 09:31:35;;;;;;;10.05;1.98;;;6.50;99.00;;;;;;5029299;28;20025;-67
2021/01/20 09:34:01;;;;;;;16.75;3.35;;;6.50;99.40;;;;;;5030272;28;20083;-66
2021/01/20 09:36:27;;;;;;;6.80;2.38;;;6.50;99.60;;;;;;5031583;28;20139;-67
2021/01/20 09:38:53;;;;;;;3.63;1.77;;;6.50;99.40;;;;;;5029201;28;20455;-67
2021/01/20 09:41:20;;;;;;;10.15;2.63;;;6.60;99.50;;;;;;5029763;28;20421;-66
2021/01/20 09:43:45;;;;;;;9.10;2.63;;;6.70;99.20;;;;;;5028291;28;20438;-68
2021/01/20 09:46:11;;;;;;;5.30;2.35;;;6.80;99.00;;;;;;5030992;28;20030;-68
2021/01/20 09:48:37;;;;;;;2.95;1.92;;;6.80;98.60;;;;;;5030669;28;20029;-65
2021/01/20 09:51:03;;;;;;;5.13;3.10;;;6.80;98.40;;;;;;5029633;28;20059;-67
2021/01/20 09:53:29;;;;;;;3.80;2.13;;;6.70;98.50;;;;;;5031075;28;20025;-68
2021/01/20 09:55:54;;;;;;;9.52;3.50;;;6.70;98.70;;;;;;5027994;28;20025;-68
2021/01/20 09:58:20;;;;;;;6.07;2.30;;;6.70;98.80;;;;;;5029841;28;20045;-68
2021/01/20 10:00:46;;;;;;;5.60;2.38;;;6.80;98.80;;;;;;5029559;28;20025;-67
2021/01/20 10:03:11;;;;;;;4.38;1.92;;;6.90;98.40;;;;;;5029527;28;20431;-68
2021/01/20 10:05:37;;;;;;;3.88;2.15;;;7.00;98.30;;;;;;5028922;28;20084;-70
2021/01/20 10:08:03;;;;;;;13.77;4.95;;;7.10;97.70;;;;;;5029573;28;20026;-67
2021/01/20 10:10:29;;;;;;;6.00;2.65;;;7.20;97.90;;;;;;5029712;28;20482;-66
2021/01/20 10:12:55;;;;;;;5.70;1.92;;;7.30;97.70;;;;;;5029992;28;20053;-67
2021/01/20 10:15:23;;;;;;;3.45;2.40;;;7.20;97.30;;;;;;5030356;28;20029;-69
2021/01/20 10:17:50;;;;;;;5.50;2.35;;;7.30;97.30;;;;;;5029042;28;20033;-66
2021/01/20 10:20:16;;;;;;;3.80;2.17;;;7.30;97.70;;;;;;5030615;28;20021;-68
2021/01/20 10:22:42;;;;;;;4.93;2.22;;;7.50;97.30;;;;;;5030918;28;20366;-67
2021/01/20 10:25:08;;;;;;;5.53;2.72;;;8.60;99.90;;;;;;5031369;28;20382;-66
2021/01/20 10:27:34;;;;;;;6.90;2.40;;;8.70;95.80;;;;;;5029088;28;20033;-68
2021/01/20 10:30:00;;;;;;;6.78;3.58;;;8.60;94.70;;;;;;5028561;28;20032;-68
2021/01/20 10:32:26;;;;;;;6.13;2.53;;;8.60;94.10;;;;;;5029051;28;20022;-67
2021/01/20 10:34:51;;;;;;;5.28;2.72;;;8.60;94.30;;;;;;5028474;28;20041;-68
2021/01/20 10:37:17;;;;;;;8.13;2.92;;;8.80;94.30;;;;;;5029454;28;20037;-67
2021/01/20 10:39:44;;;;;;;3.63;2.22;;;8.60;93.80;;;;;;5007916;28;638788;-68
2021/01/20 10:42:09;;;;;;;5.00;2.17;;;8.40;94.30;;;;;;5031155;28;20093;-69
2021/01/20 10:44:35;;;;;;;12.70;2.40;;;8.40;94.50;;;;;;5029590;28;20120;-67
2021/01/20 10:47:01;;;;;;;3.75;2.25;;;8.30;94.80;;;;;;5030550;28;20037;-67
2021/01/20 10:49:26;;;;;;;10.23;2.90;;;8.30;95.00;;;;;;5029162;28;20030;-68
2021/01/20 10:51:52;;;;;;;10.27;3.03;;;8.00;95.70;;;;;;5030539;28;20037;-67
2021/01/20 10:54:18;;;;;;;7.38;3.15;;;7.90;96.50;;;;;;5029741;28;20026;-68
2021/01/20 10:56:44;;;;;;;5.18;2.58;;;7.80;96.60;;;;;;5029610;28;20021;-68
2021/01/20 10:59:09;;;;;;;5.95;3.00;;;7.90;96.90;;;;;;5029816;28;20504;-67
2021/01/20 11:01:36;;;;;;;4.72;2.35;;;7.90;97.00;;;;;;5046496;28;20511;-67
2021/01/20 11:04:01;;;;;;;6.38;2.70;;;7.90;96.70;;;;;;5029003;28;20215;-67
2021/01/20 11:06:27;;;;;;;6.05;2.13;;;7.80;96.90;;;;;;5031060;28;20120;-66
2021/01/20 11:08:53;;;;;;;3.90;2.75;;;7.80;97.00;;;;;;5028928;28;20030;-67
2021/01/20 11:11:18;;;;;;;7.90;2.85;;;7.90;97.50;;;;;;5029568;28;20408;-67
2021/01/20 11:13:45;;;;;;;7.50;3.20;;;8.20;96.70;;;;;;5030284;28;20030;-67
2021/01/20 11:16:12;;;;;;;6.53;3.33;;;8.30;96.60;;;;;;5028551;28;20125;-67
2021/01/20 11:18:38;;;;;;;5.28;3.13;;;8.50;96.20;;;;;;5029837;28;20053;-66
2021/01/20 11:21:04;;;;;;;6.53;2.60;;;8.70;95.90;;;;;;5028955;28;20526;-67
2021/01/20 11:23:35;;;;;;;6.72;2.55;;;8.90;95.10;;;;;;5030846;28;20022;-67
2021/01/20 11:26:09;;;;;;;5.75;2.67;;;8.90;95.40;;;;;;5028450;28;20617;-67
2021/01/20 11:28:34;;;;;;;5.22;2.10;;;9.10;94.80;;;;;;5029623;28;20084;-67
2021/01/20 11:31:00;;;;;;;4.75;2.22;;;9.20;94.90;;;;;;5028490;28;20029;-67
2021/01/20 11:33:26;;;;;;;5.25;1.90;;;9.30;94.60;;;;;;5028882;28;20048;-67
2021/01/20 11:35:52;;;;;;;9.60;2.85;;;9.30;94.40;;;;;;5029910;28;20159;-67
2021/01/20 11:38:18;;;;;;;3.38;1.80;;;9.40;94.00;;;;;;5028795;28;20056;-66
2021/01/20 11:40:44;;;;;;;5.75;2.20;;;9.20;94.20;;;;;;5028265;28;20399;-68
2021/01/20 11:43:10;;;;;;;9.65;2.42;;;9.00;95.10;;;;;;5029248;28;20387;-68
2021/01/20 11:45:37;;;;;;;9.10;2.47;;;9.40;95.00;;;;;;5028775;28;20029;-68
2021/01/20 11:48:05;;;;;;;7.32;1.65;;;9.30;94.50;;;;;;5033039;28;20371;-66
2021/01/20 11:50:32;;;;;;;7.47;2.63;;;9.30;94.80;;;;;;5034151;28;20524;-67
2021/01/20 11:52:57;;;;;;;8.43;2.40;;;9.40;94.90;;;;;;5031729;28;20040;-66
2021/01/20 11:55:24;;;;;;;8.35;2.22;;;9.50;94.50;;;;;;5031973;28;20034;-67
2021/01/20 11:57:50;;;;;;;9.93;1.70;;;9.70;94.20;;;;;;5031455;28;20026;-67
2021/01/20 12:00:17;;;;;;;7.15;2.03;;;9.60;94.40;;;;;;5033659;28;20025;-67
2021/01/20 12:02:43;;;;;;;7.05;1.92;;;9.50;94.30;;;;;;5031940;28;20030;-67
2021/01/20 12:05:11;;;;;;;5.40;2.05;;;9.50;94.60;;;;;;5032150;28;20033;-68
2021/01/20 12:07:38;;;;;;;4.47;1.90;;;9.40;94.80;;;;;;5033282;28;20034;-67
2021/01/20 12:10:06;;;;;;;5.38;1.85;;;9.50;94.60;;;;;;5032431;28;20242;-67
2021/01/20 12:12:32;;;;;;;4.90;1.98;;;9.60;94.20;;;;;;5031654;28;20029;-67
2021/01/20 12:14:57;;;;;;;2.97;1.45;;;9.80;94.00;;;;;;5031210;28;20022;-67
2021/01/20 12:17:23;;;;;;;4.82;1.88;;;10.10;93.10;;;;;;5033299;28;20033;-69
2021/01/20 12:19:49;;;;;;;3.63;1.70;;;10.00;93.60;;;;;;5032940;28;20071;-67
2021/01/20 12:22:15;;;;;;;2.92;1.90;;;9.80;93.70;;;;;;5032692;28;20078;-67
2021/01/20 12:24:41;;;;;;;10.30;2.17;;;9.80;93.70;;;;;;5032129;28;20036;-67
2021/01/20 12:27:07;;;;;;;7.22;1.95;;;9.80;93.60;;;;;;5032687;28;20039;-66
2021/01/20 12:29:32;;;;;;;3.20;1.70;;;9.80;94.00;;;;;;5032272;28;20036;-67
2021/01/20 12:31:58;;;;;;;4.93;1.80;;;9.70;94.10;;;;;;5031438;28;20403;-66
2021/01/20 12:34:24;;;;;;;3.90;1.60;;;9.80;93.50;;;;;;5031325;28;20493;-66
2021/01/20 12:36:49;;;;;;;8.75;2.45;;;9.90;93.40;;;;;;5032663;28;20107;-67
2021/01/20 12:39:16;;;;;;;12.65;1.80;;;9.90;93.50;;;;;;5032489;28;20045;-67
2021/01/20 12:41:41;;;;;;;3.17;1.80;;;9.90;93.40;;;;;;5031757;28;20026;-66
2021/01/20 12:44:08;;;;;;;4.47;1.80;;;10.10;93.20;;;;;;5030945;28;20466;-66
2021/01/20 12:46:34;;;;;;;6.78;2.38;;;10.20;93.10;;;;;;5032412;28;20038;-66
2021/01/20 12:49:00;;;;;;;7.43;2.05;;;10.20;92.90;;;;;;5030536;28;20028;-66
2021/01/20 12:51:26;;;;;;;4.90;2.25;;;10.30;92.00;;;;;;5030984;28;20025;-67
2021/01/20 12:53:52;;;;;;;2.17;1.15;;;10.30;92.10;;;;;;5031971;28;20036;-67
2021/01/20 12:56:17;;;;;;;4.07;1.67;;;10.40;92.00;;;;;;5031093;28;20068;-66
2021/01/20 12:58:43;;;;;;;9.70;2.92;;;10.10;92.60;;;;;;5031140;28;20081;-68
2021/01/20 13:01:09;;;;;;;2.42;1.38;;;10.50;92.30;;;;;;5030622;28;20033;-66